sensor_id;sensor_type;location;lat;lon;timestamp;P1;durP1;ratioP1;P2;durP2;ratioP2
26377;SDS011;14078;50.974;6.786;2023-12-20T00:02:01;15.48;;;7.90;;
26377;SDS011;14078;50.974;6.786;2023-12-20T00:04:28;15.85;;;8.25;;
26377;SDS011;14078;50.974;6.786;2023-12-20T00:06:55;15.80;;;7.60;;
26377;SDS011;14078;50.974;6.786;2023-12-20T00:09:24;12.90;;;7.40;;
26377;SDS011;14078;50.974;6.786;2023-12-20T00:11:50;15.07;;;6.78;;
26377;SDS011;14078;50.974;6.786;2023-12-20T00:14:17;12.45;;;7.00;;
26377;SDS011;14078;50.974;6.786;2023-12-20T00:16:45;12.55;;;6.85;;
26377;SDS011;14078;50.974;6.786;2023-12-20T00:19:12;16.75;;;8.35;;
26377;SDS011;14078;50.974;6.786;2023-12-20T00:21:39;15.93;;;7.70;;
26377;SDS011;14078;50.974;6.786;2023-12-20T00:24:06;10.88;;;5.90;;
26377;SDS011;14078;50.974;6.786;2023-12-20T00:26:33;11.57;;;7.55;;
26377;SDS011;14078;50.974;6.786;2023-12-20T00:29:00;9.02;;;5.00;;
26377;SDS011;14078;50.974;6.786;2023-12-20T00:31:26;10.88;;;4.88;;
26377;SDS011;14078;50.974;6.786;2023-12-20T00:33:55;8.55;;;5.45;;
26377;SDS011;14078;50.974;6.786;2023-12-20T00:36:22;10.90;;;4.72;;
26377;SDS011;14078;50.974;6.786;2023-12-20T00:38:48;10.00;;;5.97;;
26377;SDS011;14078;50.974;6.786;2023-12-20T00:41:16;9.98;;;5.00;;
26377;SDS011;14078;50.974;6.786;2023-12-20T00:43:43;12.10;;;5.40;;
26377;SDS011;14078;50.974;6.786;2023-12-20T00:46:10;12.48;;;5.75;;
26377;SDS011;14078;50.974;6.786;2023-12-20T00:48:36;12.07;;;5.28;;
26377;SDS011;14078;50.974;6.786;2023-12-20T00:51:05;13.77;;;5.65;;
26377;SDS011;14078;50.974;6.786;2023-12-20T00:53:32;11.75;;;5.80;;
26377;SDS011;14078;50.974;6.786;2023-12-20T00:55:59;15.38;;;6.65;;
26377;SDS011;14078;50.974;6.786;2023-12-20T00:58:26;16.60;;;7.47;;
26377;SDS011;14078;50.974;6.786;2023-12-20T01:00:53;13.30;;;6.22;;
26377;SDS011;14078;50.974;6.786;2023-12-20T01:03:20;15.77;;;6.03;;
26377;SDS011;14078;50.974;6.786;2023-12-20T01:05:47;15.20;;;6.88;;
26377;SDS011;14078;50.974;6.786;2023-12-20T01:08:15;15.68;;;7.22;;
26377;SDS011;14078;50.974;6.786;2023-12-20T01:10:42;16.85;;;6.40;;
26377;SDS011;14078;50.974;6.786;2023-12-20T01:13:08;13.00;;;6.47;;
26377;SDS011;14078;50.974;6.786;2023-12-20T01:15:35;19.30;;;7.82;;
26377;SDS011;14078;50.974;6.786;2023-12-20T01:18:02;20.30;;;7.40;;
26377;SDS011;14078;50.974;6.786;2023-12-20T01:20:29;18.45;;;7.78;;
26377;SDS011;14078;50.974;6.786;2023-12-20T01:22:56;22.52;;;8.40;;
26377;SDS011;14078;50.974;6.786;2023-12-20T01:25:24;16.75;;;8.23;;
26377;SDS011;14078;50.974;6.786;2023-12-20T01:27:51;18.80;;;8.30;;
26377;SDS011;14078;50.974;6.786;2023-12-20T01:30:18;23.92;;;8.60;;
26377;SDS011;14078;50.974;6.786;2023-12-20T01:32:45;19.23;;;9.73;;
26377;SDS011;14078;50.974;6.786;2023-12-20T01:35:12;26.10;;;10.75;;
26377;SDS011;14078;50.974;6.786;2023-12-20T01:37:39;25.70;;;10.02;;
26377;SDS011;14078;50.974;6.786;2023-12-20T01:40:06;26.00;;;10.57;;
26377;SDS011;14078;50.974;6.786;2023-12-20T01:42:35;25.05;;;10.20;;
26377;SDS011;14078;50.974;6.786;2023-12-20T01:45:02;22.30;;;9.20;;
26377;SDS011;14078;50.974;6.786;2023-12-20T01:47:29;16.35;;;8.30;;
26377;SDS011;14078;50.974;6.786;2023-12-20T01:49:56;19.08;;;8.70;;
26377;SDS011;14078;50.974;6.786;2023-12-20T01:52:24;15.23;;;8.02;;
26377;SDS011;14078;50.974;6.786;2023-12-20T01:54:52;17.30;;;6.95;;
26377;SDS011;14078;50.974;6.786;2023-12-20T01:57:26;28.80;;;8.18;;
26377;SDS011;14078;50.974;6.786;2023-12-20T01:59:54;25.00;;;7.47;;
26377;SDS011;14078;50.974;6.786;2023-12-20T02:02:21;21.08;;;7.10;;
26377;SDS011;14078;50.974;6.786;2023-12-20T02:04:48;17.38;;;6.47;;
26377;SDS011;14078;50.974;6.786;2023-12-20T02:07:16;11.88;;;4.20;;
26377;SDS011;14078;50.974;6.786;2023-12-20T02:09:44;10.80;;;4.78;;
26377;SDS011;14078;50.974;6.786;2023-12-20T02:12:11;7.63;;;3.45;;
26377;SDS011;14078;50.974;6.786;2023-12-20T02:14:37;8.10;;;3.55;;
26377;SDS011;14078;50.974;6.786;2023-12-20T02:17:06;7.45;;;3.45;;
26377;SDS011;14078;50.974;6.786;2023-12-20T02:19:32;9.15;;;3.58;;
26377;SDS011;14078;50.974;6.786;2023-12-20T02:22:08;8.13;;;3.28;;
26377;SDS011;14078;50.974;6.786;2023-12-20T02:24:35;11.32;;;4.00;;
26377;SDS011;14078;50.974;6.786;2023-12-20T02:27:02;12.15;;;4.40;;
26377;SDS011;14078;50.974;6.786;2023-12-20T02:29:29;9.98;;;4.30;;
26377;SDS011;14078;50.974;6.786;2023-12-20T02:31:57;15.52;;;3.75;;
26377;SDS011;14078;50.974;6.786;2023-12-20T02:34:23;11.68;;;4.03;;
26377;SDS011;14078;50.974;6.786;2023-12-20T02:36:50;19.40;;;3.58;;
26377;SDS011;14078;50.974;6.786;2023-12-20T02:39:19;7.40;;;2.67;;
26377;SDS011;14078;50.974;6.786;2023-12-20T02:41:46;14.77;;;2.40;;
26377;SDS011;14078;50.974;6.786;2023-12-20T02:44:13;13.32;;;2.92;;
26377;SDS011;14078;50.974;6.786;2023-12-20T02:46:39;9.68;;;2.38;;
26377;SDS011;14078;50.974;6.786;2023-12-20T02:49:06;8.25;;;1.90;;
26377;SDS011;14078;50.974;6.786;2023-12-20T02:51:33;4.82;;;1.95;;
26377;SDS011;14078;50.974;6.786;2023-12-20T02:54:03;2.65;;;1.40;;
26377;SDS011;14078;50.974;6.786;2023-12-20T02:56:31;6.82;;;2.10;;
26377;SDS011;14078;50.974;6.786;2023-12-20T02:58:58;6.88;;;1.50;;
26377;SDS011;14078;50.974;6.786;2023-12-20T03:01:24;7.47;;;1.63;;
26377;SDS011;14078;50.974;6.786;2023-12-20T03:03:52;6.25;;;1.60;;
26377;SDS011;14078;50.974;6.786;2023-12-20T03:06:19;6.03;;;1.42;;
26377;SDS011;14078;50.974;6.786;2023-12-20T03:08:46;3.95;;;1.40;;
26377;SDS011;14078;50.974;6.786;2023-12-20T03:11:13;1.77;;;1.60;;
26377;SDS011;14078;50.974;6.786;2023-12-20T03:13:41;6.35;;;1.45;;
26377;SDS011;14078;50.974;6.786;2023-12-20T03:16:08;10.30;;;2.33;;
26377;SDS011;14078;50.974;6.786;2023-12-20T03:18:35;10.45;;;1.95;;
26377;SDS011;14078;50.974;6.786;2023-12-20T03:21:02;4.78;;;1.65;;
26377;SDS011;14078;50.974;6.786;2023-12-20T03:23:29;9.02;;;1.80;;
26377;SDS011;14078;50.974;6.786;2023-12-20T03:25:57;10.68;;;3.53;;
26377;SDS011;14078;50.974;6.786;2023-12-20T03:28:24;8.02;;;2.10;;
26377;SDS011;14078;50.974;6.786;2023-12-20T03:30:52;6.68;;;2.10;;
26377;SDS011;14078;50.974;6.786;2023-12-20T03:33:19;8.10;;;2.33;;
26377;SDS011;14078;50.974;6.786;2023-12-20T03:35:46;8.13;;;2.42;;
26377;SDS011;14078;50.974;6.786;2023-12-20T03:38:13;11.40;;;1.95;;
26377;SDS011;14078;50.974;6.786;2023-12-20T03:40:40;7.10;;;2.10;;
26377;SDS011;14078;50.974;6.786;2023-12-20T03:43:07;4.60;;;2.40;;
26377;SDS011;14078;50.974;6.786;2023-12-20T03:45:33;10.25;;;2.05;;
26377;SDS011;14078;50.974;6.786;2023-12-20T03:48:02;8.27;;;2.30;;
26377;SDS011;14078;50.974;6.786;2023-12-20T03:50:29;6.60;;;2.22;;
26377;SDS011;14078;50.974;6.786;2023-12-20T03:52:56;6.93;;;2.17;;
26377;SDS011;14078;50.974;6.786;2023-12-20T03:55:24;9.27;;;2.28;;
26377;SDS011;14078;50.974;6.786;2023-12-20T03:57:51;12.50;;;2.95;;
26377;SDS011;14078;50.974;6.786;2023-12-20T04:00:17;6.53;;;2.05;;
26377;SDS011;14078;50.974;6.786;2023-12-20T04:02:45;9.40;;;2.17;;
26377;SDS011;14078;50.974;6.786;2023-12-20T04:05:13;9.18;;;2.15;;
26377;SDS011;14078;50.974;6.786;2023-12-20T04:07:40;8.03;;;2.20;;
26377;SDS011;14078;50.974;6.786;2023-12-20T04:10:07;8.50;;;2.85;;
26377;SDS011;14078;50.974;6.786;2023-12-20T04:12:34;7.15;;;2.90;;
26377;SDS011;14078;50.974;6.786;2023-12-20T04:15:01;10.70;;;2.70;;
26377;SDS011;14078;50.974;6.786;2023-12-20T04:17:33;9.02;;;2.90;;
26377;SDS011;14078;50.974;6.786;2023-12-20T04:20:00;8.10;;;2.75;;
26377;SDS011;14078;50.974;6.786;2023-12-20T04:22:29;13.85;;;4.03;;
26377;SDS011;14078;50.974;6.786;2023-12-20T04:24:55;15.68;;;3.67;;
26377;SDS011;14078;50.974;6.786;2023-12-20T04:27:22;10.68;;;3.25;;
26377;SDS011;14078;50.974;6.786;2023-12-20T04:29:49;7.07;;;3.00;;
26377;SDS011;14078;50.974;6.786;2023-12-20T04:32:16;14.77;;;3.30;;
26377;SDS011;14078;50.974;6.786;2023-12-20T04:34:42;9.10;;;3.00;;
26377;SDS011;14078;50.974;6.786;2023-12-20T04:37:09;17.13;;;3.47;;
26377;SDS011;14078;50.974;6.786;2023-12-20T04:39:38;20.35;;;3.88;;
26377;SDS011;14078;50.974;6.786;2023-12-20T04:42:06;8.57;;;3.33;;
26377;SDS011;14078;50.974;6.786;2023-12-20T04:44:33;9.32;;;3.42;;
26377;SDS011;14078;50.974;6.786;2023-12-20T04:47:00;9.32;;;3.20;;
26377;SDS011;14078;50.974;6.786;2023-12-20T04:49:27;8.82;;;2.80;;
26377;SDS011;14078;50.974;6.786;2023-12-20T04:51:53;8.23;;;3.42;;
26377;SDS011;14078;50.974;6.786;2023-12-20T04:54:20;7.75;;;2.72;;
26377;SDS011;14078;50.974;6.786;2023-12-20T04:56:49;14.15;;;2.53;;
26377;SDS011;14078;50.974;6.786;2023-12-20T04:59:16;9.18;;;2.72;;
26377;SDS011;14078;50.974;6.786;2023-12-20T05:01:42;12.43;;;2.10;;
26377;SDS011;14078;50.974;6.786;2023-12-20T05:04:09;9.82;;;2.45;;
26377;SDS011;14078;50.974;6.786;2023-12-20T05:06:36;7.18;;;3.20;;
26377;SDS011;14078;50.974;6.786;2023-12-20T05:09:02;21.70;;;3.72;;
26377;SDS011;14078;50.974;6.786;2023-12-20T05:11:29;11.05;;;3.70;;
26377;SDS011;14078;50.974;6.786;2023-12-20T05:13:57;5.20;;;2.72;;
26377;SDS011;14078;50.974;6.786;2023-12-20T05:16:24;13.30;;;3.53;;
26377;SDS011;14078;50.974;6.786;2023-12-20T05:18:51;6.72;;;3.65;;
26377;SDS011;14078;50.974;6.786;2023-12-20T05:21:18;12.43;;;3.35;;
26377;SDS011;14078;50.974;6.786;2023-12-20T05:23:45;7.65;;;2.60;;
26377;SDS011;14078;50.974;6.786;2023-12-20T05:26:12;11.02;;;3.20;;
26377;SDS011;14078;50.974;6.786;2023-12-20T05:28:39;7.32;;;3.13;;
26377;SDS011;14078;50.974;6.786;2023-12-20T05:31:07;10.07;;;3.13;;
26377;SDS011;14078;50.974;6.786;2023-12-20T05:33:34;10.38;;;3.20;;
26377;SDS011;14078;50.974;6.786;2023-12-20T05:36:00;8.18;;;2.85;;
26377;SDS011;14078;50.974;6.786;2023-12-20T05:38:27;8.30;;;3.00;;
26377;SDS011;14078;50.974;6.786;2023-12-20T05:40:54;10.55;;;2.47;;
26377;SDS011;14078;50.974;6.786;2023-12-20T05:43:21;8.40;;;2.63;;
26377;SDS011;14078;50.974;6.786;2023-12-20T05:45:47;10.88;;;2.85;;
26377;SDS011;14078;50.974;6.786;2023-12-20T05:48:16;8.73;;;2.72;;
26377;SDS011;14078;50.974;6.786;2023-12-20T05:50:42;5.85;;;1.83;;
26377;SDS011;14078;50.974;6.786;2023-12-20T05:53:09;10.07;;;3.40;;
26377;SDS011;14078;50.974;6.786;2023-12-20T05:55:36;9.75;;;2.22;;
26377;SDS011;14078;50.974;6.786;2023-12-20T05:58:03;8.82;;;2.15;;
26377;SDS011;14078;50.974;6.786;2023-12-20T06:00:30;11.30;;;2.85;;
26377;SDS011;14078;50.974;6.786;2023-12-20T06:02:57;11.38;;;3.03;;
26377;SDS011;14078;50.974;6.786;2023-12-20T06:05:25;6.57;;;2.85;;
26377;SDS011;14078;50.974;6.786;2023-12-20T06:08:30;13.95;;;3.40;;
26377;SDS011;14078;50.974;6.786;2023-12-20T06:10:57;16.00;;;2.42;;
26377;SDS011;14078;50.974;6.786;2023-12-20T06:13:28;14.32;;;2.67;;
26377;SDS011;14078;50.974;6.786;2023-12-20T06:16:06;14.50;;;2.88;;
26377;SDS011;14078;50.974;6.786;2023-12-20T06:18:47;4.88;;;2.20;;
26377;SDS011;14078;50.974;6.786;2023-12-20T06:21:15;9.43;;;3.03;;
26377;SDS011;14078;50.974;6.786;2023-12-20T06:23:42;12.95;;;1.95;;
26377;SDS011;14078;50.974;6.786;2023-12-20T06:26:09;6.97;;;2.53;;
26377;SDS011;14078;50.974;6.786;2023-12-20T06:28:36;13.68;;;2.78;;
26377;SDS011;14078;50.974;6.786;2023-12-20T06:31:03;10.93;;;2.92;;
26377;SDS011;14078;50.974;6.786;2023-12-20T06:33:30;5.80;;;2.88;;
26377;SDS011;14078;50.974;6.786;2023-12-20T06:35:56;6.40;;;2.38;;
26377;SDS011;14078;50.974;6.786;2023-12-20T06:38:25;13.07;;;2.38;;
26377;SDS011;14078;50.974;6.786;2023-12-20T06:40:58;6.28;;;2.47;;
26377;SDS011;14078;50.974;6.786;2023-12-20T06:43:25;8.43;;;2.42;;
26377;SDS011;14078;50.974;6.786;2023-12-20T06:45:52;9.32;;;1.75;;
26377;SDS011;14078;50.974;6.786;2023-12-20T06:48:18;13.35;;;2.33;;
26377;SDS011;14078;50.974;6.786;2023-12-20T06:50:45;14.77;;;3.00;;
26377;SDS011;14078;50.974;6.786;2023-12-20T06:53:12;7.88;;;2.60;;
26377;SDS011;14078;50.974;6.786;2023-12-20T06:55:42;4.80;;;2.20;;
26377;SDS011;14078;50.974;6.786;2023-12-20T06:58:11;14.85;;;2.42;;
26377;SDS011;14078;50.974;6.786;2023-12-20T07:00:38;17.98;;;3.35;;
26377;SDS011;14078;50.974;6.786;2023-12-20T07:03:05;8.40;;;1.73;;
26377;SDS011;14078;50.974;6.786;2023-12-20T07:05:32;8.60;;;2.17;;
26377;SDS011;14078;50.974;6.786;2023-12-20T07:07:59;11.85;;;2.55;;
26377;SDS011;14078;50.974;6.786;2023-12-20T07:10:26;12.40;;;2.25;;
26377;SDS011;14078;50.974;6.786;2023-12-20T07:12:54;4.45;;;1.80;;
26377;SDS011;14078;50.974;6.786;2023-12-20T07:15:21;8.75;;;2.72;;
26377;SDS011;14078;50.974;6.786;2023-12-20T07:17:59;8.25;;;2.45;;
26377;SDS011;14078;50.974;6.786;2023-12-20T07:20:42;10.98;;;2.55;;
26377;SDS011;14078;50.974;6.786;2023-12-20T07:23:09;9.38;;;3.00;;
26377;SDS011;14078;50.974;6.786;2023-12-20T07:25:36;12.85;;;2.88;;
26377;SDS011;14078;50.974;6.786;2023-12-20T07:28:05;8.60;;;2.47;;
26377;SDS011;14078;50.974;6.786;2023-12-20T07:30:34;14.82;;;2.25;;
26377;SDS011;14078;50.974;6.786;2023-12-20T07:33:01;11.13;;;3.45;;
26377;SDS011;14078;50.974;6.786;2023-12-20T07:35:29;8.75;;;2.78;;
26377;SDS011;14078;50.974;6.786;2023-12-20T07:37:56;6.72;;;2.60;;
26377;SDS011;14078;50.974;6.786;2023-12-20T07:40:25;12.00;;;3.13;;
26377;SDS011;14078;50.974;6.786;2023-12-20T07:42:52;11.88;;;3.03;;
26377;SDS011;14078;50.974;6.786;2023-12-20T07:45:20;7.35;;;3.08;;
26377;SDS011;14078;50.974;6.786;2023-12-20T07:47:47;11.70;;;3.05;;
26377;SDS011;14078;50.974;6.786;2023-12-20T07:50:15;6.30;;;3.05;;
26377;SDS011;14078;50.974;6.786;2023-12-20T07:52:42;7.07;;;3.20;;
26377;SDS011;14078;50.974;6.786;2023-12-20T07:55:09;15.18;;;3.13;;
26377;SDS011;14078;50.974;6.786;2023-12-20T07:57:36;9.93;;;3.00;;
26377;SDS011;14078;50.974;6.786;2023-12-20T08:00:06;8.98;;;4.00;;
26377;SDS011;14078;50.974;6.786;2023-12-20T08:02:37;20.55;;;3.85;;
26377;SDS011;14078;50.974;6.786;2023-12-20T08:05:05;5.32;;;2.88;;
26377;SDS011;14078;50.974;6.786;2023-12-20T08:07:32;10.68;;;2.80;;
26377;SDS011;14078;50.974;6.786;2023-12-20T08:09:59;9.25;;;3.65;;
26377;SDS011;14078;50.974;6.786;2023-12-20T08:12:26;8.40;;;3.22;;
26377;SDS011;14078;50.974;6.786;2023-12-20T08:14:56;5.63;;;2.75;;
26377;SDS011;14078;50.974;6.786;2023-12-20T08:17:23;7.97;;;3.58;;
26377;SDS011;14078;50.974;6.786;2023-12-20T08:19:53;14.57;;;4.40;;
26377;SDS011;14078;50.974;6.786;2023-12-20T08:22:25;10.18;;;2.95;;
26377;SDS011;14078;50.974;6.786;2023-12-20T08:24:52;4.93;;;2.85;;
26377;SDS011;14078;50.974;6.786;2023-12-20T08:27:20;5.53;;;2.65;;
26377;SDS011;14078;50.974;6.786;2023-12-20T08:29:47;15.57;;;3.70;;
26377;SDS011;14078;50.974;6.786;2023-12-20T08:32:15;8.27;;;2.07;;
26377;SDS011;14078;50.974;6.786;2023-12-20T08:34:42;10.32;;;2.45;;
26377;SDS011;14078;50.974;6.786;2023-12-20T08:37:11;8.80;;;3.10;;
26377;SDS011;14078;50.974;6.786;2023-12-20T08:39:37;10.65;;;2.65;;
26377;SDS011;14078;50.974;6.786;2023-12-20T08:42:04;13.35;;;2.33;;
26377;SDS011;14078;50.974;6.786;2023-12-20T08:44:31;12.75;;;3.22;;
26377;SDS011;14078;50.974;6.786;2023-12-20T08:47:00;7.53;;;3.22;;
26377;SDS011;14078;50.974;6.786;2023-12-20T08:49:30;8.70;;;2.60;;
26377;SDS011;14078;50.974;6.786;2023-12-20T08:51:56;18.17;;;3.63;;
26377;SDS011;14078;50.974;6.786;2023-12-20T08:54:28;12.65;;;2.72;;
26377;SDS011;14078;50.974;6.786;2023-12-20T08:56:57;12.93;;;3.70;;
26377;SDS011;14078;50.974;6.786;2023-12-20T08:59:27;12.43;;;3.25;;
26377;SDS011;14078;50.974;6.786;2023-12-20T09:01:56;10.73;;;2.53;;
26377;SDS011;14078;50.974;6.786;2023-12-20T09:04:25;9.82;;;2.60;;
26377;SDS011;14078;50.974;6.786;2023-12-20T09:06:53;11.85;;;2.47;;
26377;SDS011;14078;50.974;6.786;2023-12-20T09:09:25;16.17;;;3.13;;
26377;SDS011;14078;50.974;6.786;2023-12-20T09:11:53;3.65;;;2.40;;
26377;SDS011;14078;50.974;6.786;2023-12-20T09:14:23;8.98;;;2.75;;
26377;SDS011;14078;50.974;6.786;2023-12-20T09:16:54;4.00;;;2.10;;
26377;SDS011;14078;50.974;6.786;2023-12-20T09:19:21;9.02;;;3.42;;
26377;SDS011;14078;50.974;6.786;2023-12-20T09:21:50;6.55;;;1.88;;
26377;SDS011;14078;50.974;6.786;2023-12-20T09:24:17;8.52;;;2.00;;
26377;SDS011;14078;50.974;6.786;2023-12-20T09:29:16;4.72;;;2.00;;
26377;SDS011;14078;50.974;6.786;2023-12-20T09:31:44;7.22;;;1.88;;
26377;SDS011;14078;50.974;6.786;2023-12-20T09:34:11;7.35;;;2.05;;
26377;SDS011;14078;50.974;6.786;2023-12-20T09:36:38;5.28;;;1.50;;
26377;SDS011;14078;50.974;6.786;2023-12-20T09:39:15;12.35;;;2.28;;
26377;SDS011;14078;50.974;6.786;2023-12-20T09:41:44;6.90;;;2.08;;
26377;SDS011;14078;50.974;6.786;2023-12-20T09:44:14;5.43;;;2.15;;
26377;SDS011;14078;50.974;6.786;2023-12-20T09:46:52;12.80;;;2.25;;
26377;SDS011;14078;50.974;6.786;2023-12-20T09:49:26;7.10;;;2.03;;
26377;SDS011;14078;50.974;6.786;2023-12-20T09:51:56;3.65;;;1.95;;
26377;SDS011;14078;50.974;6.786;2023-12-20T09:54:23;7.43;;;2.60;;
26377;SDS011;14078;50.974;6.786;2023-12-20T09:56:52;8.03;;;2.23;;
26377;SDS011;14078;50.974;6.786;2023-12-20T09:59:23;9.90;;;2.30;;
26377;SDS011;14078;50.974;6.786;2023-12-20T10:01:50;6.53;;;1.90;;
26377;SDS011;14078;50.974;6.786;2023-12-20T10:04:21;5.05;;;2.50;;
26377;SDS011;14078;50.974;6.786;2023-12-20T10:06:48;12.73;;;2.72;;
26377;SDS011;14078;50.974;6.786;2023-12-20T10:09:17;19.13;;;2.87;;
26377;SDS011;14078;50.974;6.786;2023-12-20T10:11:44;5.93;;;2.38;;
26377;SDS011;14078;50.974;6.786;2023-12-20T10:14:11;10.52;;;3.28;;
26377;SDS011;14078;50.974;6.786;2023-12-20T10:16:40;5.53;;;2.33;;
26377;SDS011;14078;50.974;6.786;2023-12-20T10:19:07;12.55;;;2.05;;
26377;SDS011;14078;50.974;6.786;2023-12-20T10:21:34;13.73;;;3.38;;
26377;SDS011;14078;50.974;6.786;2023-12-20T10:24:01;10.40;;;3.03;;
26377;SDS011;14078;50.974;6.786;2023-12-20T10:26:28;6.05;;;2.65;;
26377;SDS011;14078;50.974;6.786;2023-12-20T10:28:55;17.95;;;3.10;;
26377;SDS011;14078;50.974;6.786;2023-12-20T10:31:26;14.82;;;3.55;;
26377;SDS011;14078;50.974;6.786;2023-12-20T10:33:55;9.27;;;2.42;;
26377;SDS011;14078;50.974;6.786;2023-12-20T10:36:22;9.05;;;2.60;;
26377;SDS011;14078;50.974;6.786;2023-12-20T10:38:51;9.52;;;2.17;;
26377;SDS011;14078;50.974;6.786;2023-12-20T10:41:19;8.90;;;3.13;;
26377;SDS011;14078;50.974;6.786;2023-12-20T10:43:51;8.90;;;2.70;;
26377;SDS011;14078;50.974;6.786;2023-12-20T10:46:18;7.28;;;2.55;;
26377;SDS011;14078;50.974;6.786;2023-12-20T10:48:46;7.13;;;2.30;;
26377;SDS011;14078;50.974;6.786;2023-12-20T10:51:17;11.85;;;3.60;;
26377;SDS011;14078;50.974;6.786;2023-12-20T10:53:45;7.43;;;2.15;;
26377;SDS011;14078;50.974;6.786;2023-12-20T10:56:15;7.25;;;2.25;;
26377;SDS011;14078;50.974;6.786;2023-12-20T10:58:43;8.35;;;2.42;;
26377;SDS011;14078;50.974;6.786;2023-12-20T11:01:12;7.95;;;1.98;;
26377;SDS011;14078;50.974;6.786;2023-12-20T11:03:43;7.05;;;1.85;;
26377;SDS011;14078;50.974;6.786;2023-12-20T11:06:18;2.42;;;1.70;;
26377;SDS011;14078;50.974;6.786;2023-12-20T11:08:55;4.18;;;2.00;;
26377;SDS011;14078;50.974;6.786;2023-12-20T11:11:35;5.55;;;1.85;;
26377;SDS011;14078;50.974;6.786;2023-12-20T11:14:12;8.18;;;2.22;;
26377;SDS011;14078;50.974;6.786;2023-12-20T11:16:43;11.07;;;2.03;;
26377;SDS011;14078;50.974;6.786;2023-12-20T11:19:10;4.72;;;1.90;;
26377;SDS011;14078;50.974;6.786;2023-12-20T11:21:40;4.75;;;1.60;;
26377;SDS011;14078;50.974;6.786;2023-12-20T11:24:07;3.90;;;1.83;;
26377;SDS011;14078;50.974;6.786;2023-12-20T11:26:35;6.18;;;1.90;;
26377;SDS011;14078;50.974;6.786;2023-12-20T11:31:56;7.88;;;1.55;;
26377;SDS011;14078;50.974;6.786;2023-12-20T11:34:26;8.30;;;2.25;;
26377;SDS011;14078;50.974;6.786;2023-12-20T11:36:58;11.57;;;2.35;;
26377;SDS011;14078;50.974;6.786;2023-12-20T11:39:26;12.25;;;2.78;;
26377;SDS011;14078;50.974;6.786;2023-12-20T11:41:55;5.38;;;2.35;;
26377;SDS011;14078;50.974;6.786;2023-12-20T11:44:25;8.43;;;2.35;;
26377;SDS011;14078;50.974;6.786;2023-12-20T11:49:22;9.85;;;2.35;;
26377;SDS011;14078;50.974;6.786;2023-12-20T11:51:54;5.20;;;2.38;;
26377;SDS011;14078;50.974;6.786;2023-12-20T11:54:22;5.93;;;2.42;;
26377;SDS011;14078;50.974;6.786;2023-12-20T11:56:52;10.05;;;5.10;;
26377;SDS011;14078;50.974;6.786;2023-12-20T11:59:21;6.40;;;2.38;;
26377;SDS011;14078;50.974;6.786;2023-12-20T12:01:48;9.18;;;3.03;;
26377;SDS011;14078;50.974;6.786;2023-12-20T12:04:25;4.80;;;2.33;;
26377;SDS011;14078;50.974;6.786;2023-12-20T12:06:53;11.02;;;3.22;;
26377;SDS011;14078;50.974;6.786;2023-12-20T12:09:20;9.73;;;2.65;;
26377;SDS011;14078;50.974;6.786;2023-12-20T12:11:51;8.05;;;2.70;;
26377;SDS011;14078;50.974;6.786;2023-12-20T12:14:18;10.23;;;2.72;;
26377;SDS011;14078;50.974;6.786;2023-12-20T12:16:47;8.85;;;2.53;;
26377;SDS011;14078;50.974;6.786;2023-12-20T12:19:22;3.47;;;2.33;;
26377;SDS011;14078;50.974;6.786;2023-12-20T12:21:51;13.95;;;2.95;;
26377;SDS011;14078;50.974;6.786;2023-12-20T12:24:20;12.13;;;3.03;;
26377;SDS011;14078;50.974;6.786;2023-12-20T12:26:52;9.48;;;2.50;;
26377;SDS011;14078;50.974;6.786;2023-12-20T12:29:20;8.73;;;2.83;;
26377;SDS011;14078;50.974;6.786;2023-12-20T12:31:47;4.93;;;2.55;;
26377;SDS011;14078;50.974;6.786;2023-12-20T12:36:45;7.20;;;2.38;;
26377;SDS011;14078;50.974;6.786;2023-12-20T12:39:14;12.82;;;2.53;;
26377;SDS011;14078;50.974;6.786;2023-12-20T12:41:43;5.30;;;2.60;;
26377;SDS011;14078;50.974;6.786;2023-12-20T12:44:10;8.82;;;2.67;;
26377;SDS011;14078;50.974;6.786;2023-12-20T12:46:38;6.55;;;2.35;;
26377;SDS011;14078;50.974;6.786;2023-12-20T12:49:09;9.93;;;2.80;;
26377;SDS011;14078;50.974;6.786;2023-12-20T12:51:41;13.50;;;3.30;;
26377;SDS011;14078;50.974;6.786;2023-12-20T12:54:10;5.40;;;2.47;;
26377;SDS011;14078;50.974;6.786;2023-12-20T12:56:38;5.53;;;2.30;;
26377;SDS011;14078;50.974;6.786;2023-12-20T12:59:12;9.63;;;2.80;;
26377;SDS011;14078;50.974;6.786;2023-12-20T13:01:59;9.57;;;2.85;;
26377;SDS011;14078;50.974;6.786;2023-12-20T13:04:26;10.48;;;3.65;;
26377;SDS011;14078;50.974;6.786;2023-12-20T13:06:53;11.88;;;2.80;;
26377;SDS011;14078;50.974;6.786;2023-12-20T13:09:23;7.70;;;2.80;;
26377;SDS011;14078;50.974;6.786;2023-12-20T13:11:55;11.80;;;2.90;;
26377;SDS011;14078;50.974;6.786;2023-12-20T13:16:52;8.20;;;2.70;;
26377;SDS011;14078;50.974;6.786;2023-12-20T13:19:22;14.60;;;3.83;;
26377;SDS011;14078;50.974;6.786;2023-12-20T13:21:50;6.95;;;3.08;;
26377;SDS011;14078;50.974;6.786;2023-12-20T13:24:17;9.77;;;3.70;;
26377;SDS011;14078;50.974;6.786;2023-12-20T13:26:46;6.40;;;3.35;;
26377;SDS011;14078;50.974;6.786;2023-12-20T13:29:17;9.70;;;2.90;;
26377;SDS011;14078;50.974;6.786;2023-12-20T13:31:46;7.70;;;3.28;;
26377;SDS011;14078;50.974;6.786;2023-12-20T13:34:13;6.15;;;3.15;;
26377;SDS011;14078;50.974;6.786;2023-12-20T13:36:43;8.88;;;2.70;;
26377;SDS011;14078;50.974;6.786;2023-12-20T13:39:15;8.93;;;2.55;;
26377;SDS011;14078;50.974;6.786;2023-12-20T13:41:43;8.05;;;2.80;;
26377;SDS011;14078;50.974;6.786;2023-12-20T13:47:15;7.95;;;2.50;;
26377;SDS011;14078;50.974;6.786;2023-12-20T13:49:42;10.75;;;3.03;;
26377;SDS011;14078;50.974;6.786;2023-12-20T13:52:12;4.22;;;2.40;;
26377;SDS011;14078;50.974;6.786;2023-12-20T13:54:41;5.55;;;2.42;;
26377;SDS011;14078;50.974;6.786;2023-12-20T13:57:12;10.70;;;3.65;;
26377;SDS011;14078;50.974;6.786;2023-12-20T13:59:43;10.48;;;2.92;;
26377;SDS011;14078;50.974;6.786;2023-12-20T14:02:12;5.72;;;2.20;;
26377;SDS011;14078;50.974;6.786;2023-12-20T14:04:41;3.65;;;2.05;;
26377;SDS011;14078;50.974;6.786;2023-12-20T14:07:08;5.50;;;2.67;;
26377;SDS011;14078;50.974;6.786;2023-12-20T14:09:38;11.75;;;3.40;;
26377;SDS011;14078;50.974;6.786;2023-12-20T14:12:11;4.38;;;2.38;;
26377;SDS011;14078;50.974;6.786;2023-12-20T14:14:39;5.70;;;3.33;;
26377;SDS011;14078;50.974;6.786;2023-12-20T14:17:12;4.38;;;2.13;;
26377;SDS011;14078;50.974;6.786;2023-12-20T14:19:40;7.90;;;2.80;;
26377;SDS011;14078;50.974;6.786;2023-12-20T14:22:06;4.75;;;2.50;;
26377;SDS011;14078;50.974;6.786;2023-12-20T14:24:34;13.43;;;2.40;;
26377;SDS011;14078;50.974;6.786;2023-12-20T14:27:01;5.57;;;2.83;;
26377;SDS011;14078;50.974;6.786;2023-12-20T14:29:28;5.05;;;1.85;;
26377;SDS011;14078;50.974;6.786;2023-12-20T14:32:00;11.73;;;2.72;;
26377;SDS011;14078;50.974;6.786;2023-12-20T14:34:28;4.78;;;2.78;;
26377;SDS011;14078;50.974;6.786;2023-12-20T14:36:58;11.45;;;2.67;;
26377;SDS011;14078;50.974;6.786;2023-12-20T14:39:28;5.80;;;2.10;;
26377;SDS011;14078;50.974;6.786;2023-12-20T14:41:58;18.30;;;3.33;;
26377;SDS011;14078;50.974;6.786;2023-12-20T14:44:28;7.72;;;2.22;;
26377;SDS011;14078;50.974;6.786;2023-12-20T14:46:59;5.80;;;2.80;;
26377;SDS011;14078;50.974;6.786;2023-12-20T14:49:27;12.10;;;3.28;;
26377;SDS011;14078;50.974;6.786;2023-12-20T14:51:57;4.43;;;2.70;;
26377;SDS011;14078;50.974;6.786;2023-12-20T14:54:32;5.75;;;2.03;;
26377;SDS011;14078;50.974;6.786;2023-12-20T14:57:01;9.65;;;2.75;;
26377;SDS011;14078;50.974;6.786;2023-12-20T14:59:28;13.68;;;2.30;;
26377;SDS011;14078;50.974;6.786;2023-12-20T15:02:02;4.60;;;2.42;;
26377;SDS011;14078;50.974;6.786;2023-12-20T15:04:31;9.55;;;2.97;;